Time;durP1;ratioP1;P1;durP2;ratioP2;P2;SDS_P1;SDS_P2;PMS_P1;PMS_P2;Temp;Humidity;BMP_temperature;BMP_pressure;BME280_temperature;BME280_humidity;BME280_pressure;Samples;Min_cycle;Max_cycle;Signal;HPM_P1;HPM_P2
2021/10/23 00:01:02;;;;;;;43.55;23.25;;;;;;;9.21;89.40;100044.72;1802045;79;21317;-76
2021/10/23 00:04:07;;;;;;;47.48;24.52;;;;;;;9.24;90.01;100032.61;1802764;79;21743;-76
2021/10/23 00:07:13;;;;;;;42.40;24.05;;;;;;;9.28;90.64;100023.05;1802722;79;21299;-76
2021/10/23 00:10:20;;;;;;;53.73;21.25;;;;;;;9.33;91.29;100011.95;1795913;79;21244;-76
2021/10/23 00:13:26;;;;;;;36.58;19.55;;;;;;;9.41;91.82;100002.85;1779531;80;21859;-76
2021/10/23 00:16:32;;;;;;;36.75;20.17;;;;;;;9.47;92.18;100006.27;1777886;80;21292;-76
2021/10/23 00:19:38;;;;;;;37.55;20.15;;;;;;;9.51;92.46;100001.31;1778114;80;21705;-76
2021/10/23 00:22:45;;;;;;;33.98;21.52;;;;;;;9.52;92.53;100001.12;1779411;80;21296;-76
2021/10/23 00:25:49;;;;;;;35.23;20.95;;;;;;;9.51;92.48;100005.41;1778262;80;21320;-76
2021/10/23 00:28:55;;;;;;;34.73;20.97;;;;;;;9.50;92.46;99999.58;1778956;80;21338;-76
2021/10/23 00:32:02;;;;;;;39.00;20.75;;;;;;;9.46;92.37;99999.95;1779487;80;21311;-76
2021/10/23 00:35:08;;;;;;;35.88;20.65;;;;;;;9.42;92.30;99997.24;1779478;80;21287;-76
2021/10/23 00:38:13;;;;;;;38.33;20.65;;;;;;;9.39;92.29;99998.95;1779519;80;21312;-76
2021/10/23 00:41:19;;;;;;;29.90;18.35;;;;;;;9.33;92.29;99987.38;1777920;80;21375;-76
2021/10/23 00:44:39;;;;;;;40.25;21.73;;;;;;;9.29;92.49;99980.56;1779321;80;21300;-77
2021/10/23 00:47:45;;;;;;;43.48;22.32;;;;;;;9.24;92.59;99978.87;1779543;80;21193;-77
2021/10/23 00:50:53;;;;;;;29.30;19.20;;;;;;;9.20;92.77;99978.89;1779423;80;21887;-77
2021/10/23 00:53:58;;;;;;;35.03;21.62;;;;;;;9.18;93.00;99974.98;1779432;80;21299;-77
2021/10/23 00:56:58;;;;;;;36.90;20.27;;;;;;;9.14;93.09;99979.59;1779563;80;21181;-77
2021/10/23 01:00:02;;;;;;;41.45;20.80;;;;;;;9.10;92.97;99992.73;1778418;80;21307;-77
2021/10/23 01:03:08;;;;;;;41.00;21.52;;;;;;;9.08;92.87;99985.73;1779542;80;21296;-77
2021/10/23 01:06:15;;;;;;;40.03;21.90;;;;;;;9.03;92.59;99986.77;1779846;80;21358;-76
2021/10/23 01:09:21;;;;;;;36.38;22.07;;;;;;;8.97;92.42;99991.05;1779610;80;21327;-77
2021/10/23 01:12:27;;;;;;;39.42;23.27;;;;;;;8.92;92.27;99987.48;1779657;79;21197;-77
2021/10/23 01:15:37;;;;;;;37.93;22.80;;;;;;;8.83;92.06;99975.40;1777682;80;21196;-77
2021/10/23 01:18:42;;;;;;;40.95;22.67;;;;;;;8.73;92.04;99974.73;1779567;80;21292;-77
2021/10/23 01:21:50;;;;;;;38.95;21.62;;;;;;;8.62;92.58;99982.25;1779296;80;21375;-76
2021/10/23 01:24:55;;;;;;;38.42;23.45;;;;;;;8.55;93.22;99985.31;1783992;80;21851;-75
2021/10/23 01:28:03;;;;;;;42.08;21.33;;;;;;;8.51;93.80;99983.09;1779548;80;21736;-76
2021/10/23 01:31:07;;;;;;;43.78;23.32;;;;;;;8.50;94.16;99981.40;1780456;80;21158;-76
2021/10/23 01:34:32;;;;;;;38.38;23.95;;;;;;;8.48;94.38;99982.09;1779447;80;21303;-76
2021/10/23 01:37:55;;;;;;;33.85;21.75;;;;;;;8.43;94.71;99979.88;1779420;80;21813;-75
2021/10/23 01:41:01;;;;;;;40.75;21.77;;;;;;;8.42;95.29;99984.48;1778802;80;21224;-76
2021/10/23 01:44:07;;;;;;;35.17;20.92;;;;;;;8.44;95.83;99984.30;1779390;80;21173;-76
2021/10/23 01:47:14;;;;;;;31.55;18.45;;;;;;;8.48;96.24;99984.82;1779381;80;21507;-76
2021/10/23 01:50:26;;;;;;;38.53;20.55;;;;;;;8.49;96.68;99981.06;1778993;80;21328;-76
2021/10/23 01:53:31;;;;;;;31.00;19.57;;;;;;;8.49;97.26;99983.79;1779486;80;21279;-78
2021/10/23 01:56:37;;;;;;;32.93;21.23;;;;;;;8.51;97.87;99987.19;1778616;80;21312;-76
2021/10/23 01:59:44;;;;;;;36.70;23.18;;;;;;;8.52;98.29;99990.27;1777763;80;21255;-75
2021/10/23 02:02:51;;;;;;;39.73;23.27;;;;;;;8.54;98.72;99989.58;1779414;80;21288;-75
2021/10/23 02:05:56;;;;;;;42.05;23.70;;;;;;;8.57;99.07;99989.25;1778060;80;21279;-75
2021/10/23 02:09:02;;;;;;;36.40;22.25;;;;;;;8.57;99.31;99980.55;1779403;80;21792;-76
2021/10/23 02:12:07;;;;;;;50.67;27.20;;;;;;;8.62;99.57;99988.22;1781788;79;21181;-76
2021/10/23 02:15:13;;;;;;;48.35;27.80;;;;;;;8.65;99.71;99991.95;1802864;79;21283;-75
2021/10/23 02:18:20;;;;;;;61.48;32.95;;;;;;;8.66;99.69;99999.98;1801017;79;21716;-76
2021/10/23 02:21:26;;;;;;;65.08;33.30;;;;;;;8.66;99.65;99995.89;1801774;79;21288;-76
2021/10/23 02:24:32;;;;;;;68.07;36.53;;;;;;;8.67;99.69;99997.58;1801292;79;21292;-76
2021/10/23 02:27:38;;;;;;;74.42;34.70;;;;;;;8.66;99.52;99996.40;1802211;79;21331;-76
2021/10/23 02:30:44;;;;;;;82.47;37.40;;;;;;;8.63;99.47;100003.03;1801245;79;21331;-76
2021/10/23 02:33:49;;;;;;;73.52;37.23;;;;;;;8.62;99.66;100006.79;1801182;79;21863;-76
2021/10/23 02:36:55;;;;;;;76.87;38.13;;;;;;;8.63;100.00;100004.91;1802756;79;21256;-76
2021/10/23 02:40:01;;;;;;;86.08;41.65;;;;;;;8.66;100.00;100010.03;1801423;79;21296;-76
2021/10/23 02:43:08;;;;;;;84.40;39.15;;;;;;;8.67;100.00;99998.09;1801669;79;21307;-76
2021/10/23 02:46:15;;;;;;;72.22;34.25;;;;;;;8.69;100.00;99994.16;1802820;79;21161;-77
2021/10/23 02:49:22;;;;;;;61.05;32.03;;;;;;;8.75;100.00;99991.77;1802801;79;21291;-76
2021/10/23 02:52:27;;;;;;;48.90;25.82;;;;;;;8.78;100.00;99993.64;1801466;79;21324;-77
2021/10/23 02:55:34;;;;;;;55.55;29.98;;;;;;;8.84;100.00;99992.09;1802668;79;21819;-77
2021/10/23 02:58:41;;;;;;;57.70;30.37;;;;;;;8.87;100.00;99987.16;1801231;79;21315;-77
2021/10/23 03:01:47;;;;;;;47.83;29.05;;;;;;;8.94;100.00;99992.27;1801472;79;21338;-76
2021/10/23 03:04:52;;;;;;;50.15;29.07;;;;;;;8.99;100.00;99991.75;1803097;79;21300;-76
2021/10/23 03:07:58;;;;;;;47.40;25.80;;;;;;;9.03;100.00;99988.13;1801307;79;21867;-76
2021/10/23 03:11:04;;;;;;;47.50;26.62;;;;;;;9.04;100.00;99992.08;1802611;79;21898;-75
2021/10/23 03:14:11;;;;;;;28.70;19.90;;;;;;;9.02;100.00;99993.26;1790595;79;21193;-76
2021/10/23 03:17:18;;;;;;;34.45;23.20;;;;;;;8.99;100.00;99997.20;1777974;80;21181;-76
2021/10/23 03:20:22;;;;;;;37.50;23.15;;;;;;;8.94;100.00;100008.63;1779443;80;21288;-76
2021/10/23 03:23:27;;;;;;;33.83;22.93;;;;;;;8.92;100.00;100014.76;1779376;80;21311;-76
2021/10/23 03:26:33;;;;;;;35.58;22.93;;;;;;;8.93;100.00;100019.18;1779397;80;21169;-76
2021/10/23 03:29:43;;;;;;;41.98;25.57;;;;;;;8.95;100.00;100008.12;1779371;80;21295;-76
2021/10/23 03:32:48;;;;;;;47.25;28.73;;;;;;;8.96;100.00;99997.02;1778148;80;21327;-76
2021/10/23 03:35:55;;;;;;;47.75;29.10;;;;;;;8.99;100.00;99994.48;1779311;80;21296;-76
2021/10/23 03:39:00;;;;;;;40.67;25.75;;;;;;;9.06;100.00;99987.28;1779103;80;21161;-77
2021/10/23 03:42:06;;;;;;;44.20;27.65;;;;;;;9.09;100.00;99971.94;1778795;80;21799;-76
2021/10/23 03:45:10;;;;;;;42.10;26.30;;;;;;;9.13;100.00;99979.27;1779303;80;21288;-77
2021/10/23 03:48:16;;;;;;;39.70;24.90;;;;;;;9.15;100.00;99969.02;1779378;80;21815;-77
2021/10/23 03:51:22;;;;;;;38.55;25.57;;;;;;;9.21;100.00;99971.03;1777876;80;21189;-77
2021/10/23 03:54:28;;;;;;;35.90;22.85;;;;;;;9.26;100.00;99971.88;1777812;80;21340;-77
2021/10/23 03:57:34;;;;;;;34.48;22.62;;;;;;;9.30;100.00;99962.31;1779293;80;21553;-77
2021/10/23 04:00:39;;;;;;;30.60;20.82;;;;;;;9.31;100.00;99968.09;1778916;80;21240;-77
2021/10/23 04:03:46;;;;;;;30.43;22.02;;;;;;;9.33;100.00;99987.38;1777894;80;21243;-76
2021/10/23 04:06:52;;;;;;;36.95;22.62;;;;;;;9.34;100.00;99986.86;1779410;80;21173;-77
2021/10/23 04:09:59;;;;;;;34.23;23.92;;;;;;;9.36;100.00;99996.59;1778034;80;21231;-77
2021/10/23 04:13:05;;;;;;;33.73;23.95;;;;;;;9.39;100.00;99997.58;1778005;80;21204;-76
2021/10/23 04:16:11;;;;;;;36.80;24.12;;;;;;;9.40;100.00;99993.82;1779211;79;21921;-76
2021/10/23 04:19:17;;;;;;;35.92;22.80;;;;;;;9.46;100.00;99995.86;1779490;80;21813;-76
2021/10/23 04:22:23;;;;;;;35.80;24.43;;;;;;;9.54;100.00;99990.02;1779169;80;21303;-76
2021/10/23 04:25:29;;;;;;;37.88;25.17;;;;;;;9.60;100.00;99995.64;1779540;80;21210;-76
2021/10/23 04:28:34;;;;;;;35.78;24.10;;;;;;;9.64;100.00;100005.66;1779112;80;21336;-76
2021/10/23 04:31:40;;;;;;;35.15;22.17;;;;;;;9.69;100.00;100021.00;1779485;80;21763;-76
2021/10/23 04:34:47;;;;;;;32.40;21.73;;;;;;;9.73;100.00;100021.84;1777961;80;21193;-76
2021/10/23 04:37:53;;;;;;;37.67;24.65;;;;;;;9.76;100.00;100031.56;1779439;80;21906;-76
2021/10/23 04:40:58;;;;;;;38.33;26.07;;;;;;;9.77;100.00;100020.97;1778069;80;21296;-76
2021/10/23 04:44:04;;;;;;;38.48;24.52;;;;;;;9.81;100.00;100023.69;1778059;80;21975;-76
2021/10/23 04:47:10;;;;;;;45.75;26.27;;;;;;;9.84;100.00;100041.09;1777846;80;21192;-76
2021/10/23 04:50:15;;;;;;;47.93;30.02;;;;;;;9.85;100.00;100034.59;1779416;80;21823;-76
2021/10/23 04:53:21;;;;;;;41.95;25.60;;;;;;;9.86;100.00;100033.56;1778661;80;21331;-76
2021/10/23 04:56:20;;;;;;;42.17;25.17;;;;;;;9.90;100.00;100033.55;1777895;80;21284;-76
2021/10/23 04:59:26;;;;;;;42.03;28.40;;;;;;;9.97;100.00;100038.64;1778875;80;21319;-76
2021/10/23 05:02:32;;;;;;;51.92;29.37;;;;;;;10.03;100.00;100040.33;1779907;80;21343;-76
2021/10/23 05:05:38;;;;;;;39.33;23.67;;;;;;;10.06;100.00;100049.51;1779134;80;21339;-76
2021/10/23 05:08:44;;;;;;;35.43;23.38;;;;;;;10.09;100.00;100047.80;1779320;80;21189;-76
2021/10/23 05:11:51;;;;;;;51.33;29.12;;;;;;;10.11;100.00;100046.56;1777953;80;21188;-76
2021/10/23 05:14:57;;;;;;;48.85;29.52;;;;;;;10.14;100.00;100046.73;1775374;80;21212;-76
2021/10/23 05:18:04;;;;;;;42.40;25.85;;;;;;;10.17;100.00;100062.78;1803696;79;21716;-76
2021/10/23 05:21:11;;;;;;;39.48;23.98;;;;;;;10.21;100.00;100075.91;1772610;79;21189;-76
2021/10/23 05:24:17;;;;;;;40.15;25.80;;;;;;;10.24;100.00;100092.48;1805990;79;21355;-77
2021/10/23 05:27:23;;;;;;;50.48;29.12;;;;;;;10.21;100.00;100092.83;1799736;79;21914;-77
2021/10/23 05:30:28;;;;;;;47.25;26.87;;;;;;;10.20;100.00;100094.69;1780852;79;21369;-77
2021/10/23 05:33:35;;;;;;;46.48;29.75;;;;;;;10.23;100.00;100098.95;1797755;79;21857;-77
2021/10/23 05:36:40;;;;;;;50.80;29.12;;;;;;;10.28;100.00;100102.55;1795064;79;21266;-78
2021/10/23 05:39:47;;;;;;;52.98;28.60;;;;;;;10.33;100.00;100112.44;1798420;79;21316;-77
2021/10/23 05:42:52;;;;;;;49.03;30.68;;;;;;;10.38;100.00;100114.11;1798888;79;21369;-78
2021/10/23 05:45:59;;;;;;;57.73;32.28;;;;;;;10.41;100.00;100117.34;1801618;79;21302;-77
2021/10/23 05:49:04;;;;;;;66.07;34.75;;;;;;;10.48;100.00;100128.40;1795731;78;21831;-77
2021/10/23 05:52:11;;;;;;;58.87;34.40;;;;;;;10.59;100.00;100125.27;1783714;78;21734;-77
2021/10/23 05:55:15;;;;;;;52.17;29.95;;;;;;;10.71;100.00;100114.75;1787920;77;21326;-77
2021/10/23 05:58:22;;;;;;;42.15;27.67;;;;;;;10.86;100.00;100134.80;1795151;78;21823;-77
2021/10/23 06:01:29;;;;;;;44.20;28.27;;;;;;;10.99;100.00;100128.73;1791154;79;21187;-77
2021/10/23 06:04:36;;;;;;;36.85;24.57;;;;;;;11.11;100.00;100137.38;1791358;79;21307;-76
2021/10/23 06:07:46;;;;;;;38.78;24.98;;;;;;;11.21;100.00;100147.55;1783571;79;21173;-76
2021/10/23 06:10:51;;;;;;;44.65;27.65;;;;;;;11.20;100.00;100148.07;1741294;82;21230;-76
2021/10/23 06:13:58;;;;;;;40.55;25.35;;;;;;;11.18;100.00;100147.38;1795409;79;21243;-77
2021/10/23 06:17:09;;;;;;;36.80;23.62;;;;;;;11.26;100.00;100140.47;1787490;79;21845;-76
2021/10/23 06:20:13;;;;;;;44.38;23.98;;;;;;;11.37;100.00;100142.43;1781830;79;21200;-76
2021/10/23 06:23:18;;;;;;;38.67;24.67;;;;;;;11.45;100.00;100145.95;1786374;79;21165;-77
2021/10/23 06:26:24;;;;;;;45.70;26.48;;;;;;;11.55;100.00;100142.09;1783848;79;21291;-76
2021/10/23 06:29:31;;;;;;;40.88;24.95;;;;;;;11.63;100.00;100125.58;1783855;79;21184;-76
2021/10/23 06:32:36;;;;;;;43.60;25.65;;;;;;;11.72;100.00;100119.82;1782115;79;21226;-77
2021/10/23 06:35:42;;;;;;;40.70;24.67;;;;;;;11.79;100.00;100124.02;1781607;79;21721;-76
2021/10/23 06:38:48;;;;;;;46.88;25.50;;;;;;;11.85;99.12;100129.28;1781146;79;21178;-77
2021/10/23 06:41:55;;;;;;;32.65;22.17;;;;;;;11.91;98.16;100136.25;1780491;79;21858;-75
2021/10/23 06:45:00;;;;;;;35.08;21.82;;;;;;;11.94;97.01;100133.11;1776222;79;21371;-76
2021/10/23 06:48:07;;;;;;;37.38;22.55;;;;;;;11.96;95.43;100133.79;1783334;79;21208;-76
2021/10/23 06:51:13;;;;;;;36.70;22.65;;;;;;;12.00;94.47;100129.63;1791452;79;21301;-76
2021/10/23 06:54:19;;;;;;;39.13;24.98;;;;;;;12.05;93.78;100132.33;1749056;81;21323;-75
2021/10/23 06:57:25;;;;;;;44.35;25.05;;;;;;;12.09;92.89;100140.47;1782442;79;21307;-77
2021/10/23 07:00:31;;;;;;;46.68;25.82;;;;;;;12.14;92.38;100142.13;1787523;79;21372;-77
2021/10/23 07:03:37;;;;;;;50.25;26.37;;;;;;;12.21;91.61;100140.33;1789079;79;22237;-77
2021/10/23 07:06:44;;;;;;;42.27;24.18;;;;;;;12.26;90.40;100141.98;1782415;79;22394;-77
2021/10/23 07:09:49;;;;;;;46.08;23.22;;;;;;;12.32;89.57;100137.09;1780868;79;21193;-76
2021/10/23 07:12:58;;;;;;;53.05;25.77;;;;;;;12.36;89.08;100119.73;1786479;79;21173;-77
2021/10/23 07:16:04;;;;;;;37.55;20.97;;;;;;;12.39;88.26;100118.84;1777587;79;21297;-77
2021/10/23 07:19:09;;;;;;;44.48;22.40;;;;;;;12.40;87.80;100116.41;1776453;79;21857;-76
2021/10/23 07:22:15;;;;;;;33.95;21.82;;;;;;;12.43;87.43;100115.20;1771209;79;21240;-77
2021/10/23 07:25:21;;;;;;;29.18;19.60;;;;;;;12.47;87.03;100123.38;1789568;79;21232;-76
2021/10/23 07:28:27;;;;;;;32.55;20.45;;;;;;;12.52;86.07;100141.47;1781514;80;21649;-79
2021/10/23 07:31:32;;;;;;;44.03;23.80;;;;;;;12.56;85.37;100148.24;1778612;80;21205;-79
2021/10/23 07:34:38;;;;;;;49.00;25.45;;;;;;;12.61;84.89;100148.55;1778543;80;21236;-77
2021/10/23 07:37:44;;;;;;;56.40;26.12;;;;;;;12.65;84.81;100155.31;1778109;79;21318;-76
2021/10/23 07:40:50;;;;;;;44.20;21.90;;;;;;;12.70;84.77;100158.36;1769117;80;21164;-77
2021/10/23 07:43:55;;;;;;;38.50;18.77;;;;;;;12.74;84.13;100157.42;1772641;79;21207;-77
2021/10/23 07:47:01;;;;;;;34.88;18.73;;;;;;;12.77;83.02;100145.55;1774419;80;21302;-78
2021/10/23 07:50:07;;;;;;;25.90;16.87;;;;;;;12.82;81.90;100150.45;1772612;79;21349;-76
2021/10/23 07:53:13;;;;;;;29.18;17.12;;;;;;;12.90;80.73;100157.72;1782095;80;21795;-77
2021/10/23 07:56:18;;;;;;;30.50;17.37;;;;;;;12.96;79.26;100156.41;1772444;79;21310;-78
2021/10/23 07:59:29;;;;;;;29.35;16.97;;;;;;;13.00;77.91;100156.34;1780814;79;21279;-78
2021/10/23 08:02:32;;;;;;;31.68;16.37;;;;;;;13.10;76.90;100164.25;1770825;79;21306;-79
2021/10/23 08:05:43;;;;;;;38.60;16.85;;;;;;;13.17;76.04;100175.29;1777022;79;21306;-77
2021/10/23 08:08:48;;;;;;;32.17;17.00;;;;;;;13.23;75.35;100182.80;1783003;79;21519;-77
2021/10/23 08:11:55;;;;;;;25.80;14.78;;;;;;;13.30;74.76;100177.67;1775208;79;21199;-77
2021/10/23 08:15:03;;;;;;;26.75;14.20;;;;;;;13.36;71.66;100184.80;1777480;79;21352;-76
2021/10/23 08:18:09;;;;;;;33.98;17.27;;;;;;;13.42;70.64;100182.66;1778264;79;21247;-77
2021/10/23 08:21:16;;;;;;;29.42;18.02;;;;;;;13.48;69.73;100179.11;1777301;79;21219;-78
2021/10/23 08:24:22;;;;;;;31.40;16.67;;;;;;;13.57;69.29;100188.06;1771673;79;21185;-77
2021/10/23 08:27:29;;;;;;;36.15;16.27;;;;;;;13.63;69.10;100183.13;1778681;79;21162;-76
2021/10/23 08:30:36;;;;;;;32.17;15.78;;;;;;;13.67;67.41;100186.66;1780043;79;21754;-76
2021/10/23 08:33:41;;;;;;;26.75;13.22;;;;;;;13.73;66.42;100189.13;1786642;79;21303;-77
2021/10/23 08:36:47;;;;;;;18.87;11.33;;;;;;;13.82;64.78;100187.92;1771111;79;21195;-76
2021/10/23 08:39:54;;;;;;;22.70;10.58;;;;;;;13.94;62.80;100189.08;1778474;79;21200;-77
2021/10/23 08:43:02;;;;;;;25.30;12.07;;;;;;;14.04;61.55;100192.32;1778687;79;21535;-77
2021/10/23 08:46:08;;;;;;;29.18;14.53;;;;;;;14.16;61.04;100197.24;1780121;79;21196;-77
2021/10/23 08:49:14;;;;;;;36.15;12.13;;;;;;;14.24;60.67;100200.69;1784808;79;21259;-77
2021/10/23 08:52:20;;;;;;;24.12;11.18;;;;;;;14.33;60.96;100198.62;1754761;79;21296;-77
2021/10/23 08:55:26;;;;;;;25.12;13.95;;;;;;;14.41;61.57;100198.46;1781060;79;21361;-77
2021/10/23 08:58:33;;;;;;;30.27;16.48;;;;;;;14.45;62.39;100196.16;1780005;79;21602;-77
2021/10/23 09:01:39;;;;;;;26.60;14.10;;;;;;;14.44;63.72;100197.19;1772995;79;21200;-77
2021/10/23 09:04:45;;;;;;;30.35;16.05;;;;;;;14.41;64.64;100203.12;1777430;79;21184;-77
2021/10/23 09:07:57;;;;;;;34.25;16.95;;;;;;;14.36;65.53;100201.51;1784180;79;21214;-76
2021/10/23 09:11:03;;;;;;;32.75;17.20;;;;;;;14.30;66.12;100201.77;1772757;79;21758;-76
2021/10/23 09:14:39;;;;;;;31.57;14.85;;;;;;;14.26;66.70;100199.13;1780648;79;21318;-76
2021/10/23 09:17:48;;;;;;;21.62;11.45;;;;;;;14.23;66.10;100197.62;1776927;79;21291;-77
2021/10/23 09:20:55;;;;;;;19.95;10.98;;;;;;;14.19;63.29;100195.47;1778399;79;21185;-76
2021/10/23 09:24:01;;;;;;;18.60;9.53;;;;;;;14.20;61.53;100204.89;1787660;79;21210;-76
2021/10/23 09:27:09;;;;;;;20.43;8.73;;;;;;;14.19;60.12;100199.07;1782888;79;21298;-77
2021/10/23 09:30:20;;;;;;;21.30;9.40;;;;;;;14.21;59.42;100205.73;1781863;79;21739;-76
2021/10/23 09:33:32;;;;;;;16.40;9.20;;;;;;;14.22;58.87;100193.17;1778868;79;21331;-76
2021/10/23 09:36:37;;;;;;;17.23;8.63;;;;;;;14.27;58.73;100203.57;1775783;79;21235;-76
2021/10/23 09:39:43;;;;;;;15.78;8.73;;;;;;;14.29;58.47;100207.80;1783503;79;21470;-76
2021/10/23 09:42:49;;;;;;;21.25;9.35;;;;;;;14.31;58.46;100211.22;1770691;79;21200;-76
2021/10/23 09:46:11;;;;;;;25.97;10.05;;;;;;;14.33;57.97;100217.88;1774768;79;21831;-76
2021/10/23 09:49:17;;;;;;;22.98;10.85;;;;;;;14.33;57.70;100198.09;1786614;79;21238;-76
2021/10/23 09:52:23;;;;;;;21.02;11.95;;;;;;;14.33;57.65;100197.25;1771669;80;21128;-76
2021/10/23 09:55:29;;;;;;;21.50;11.60;;;;;;;14.32;57.60;100199.69;1773953;79;21334;-75
2021/10/23 09:58:35;;;;;;;19.30;10.58;;;;;;;14.32;57.51;100193.65;1782339;79;21204;-76
2021/10/23 10:01:44;;;;;;;20.48;10.15;;;;;;;14.33;57.46;100194.49;1785156;79;21372;-76
2021/10/23 10:04:50;;;;;;;21.57;10.65;;;;;;;14.35;57.18;100195.16;1751044;80;21312;-75
2021/10/23 10:07:57;;;;;;;30.05;10.48;;;;;;;14.40;57.23;100198.14;1793755;79;21350;-76
2021/10/23 10:11:03;;;;;;;21.30;10.38;;;;;;;14.46;57.53;100193.72;1783036;79;21166;-76
2021/10/23 10:14:09;;;;;;;17.98;10.60;;;;;;;14.53;57.76;100187.20;1777384;79;21172;-75
2021/10/23 10:17:16;;;;;;;20.43;10.70;;;;;;;14.63;57.99;100187.34;1787808;79;21318;-78
2021/10/23 10:20:21;;;;;;;26.95;10.32;;;;;;;14.68;57.94;100177.95;1759557;81;21243;-76
2021/10/23 10:23:42;;;;;;;25.45;10.72;;;;;;;14.71;57.92;100174.26;1789419;79;21196;-76
2021/10/23 10:26:48;;;;;;;25.40;11.57;;;;;;;14.72;58.02;100174.58;1794379;79;21343;-76
2021/10/23 10:30:00;;;;;;;23.02;9.78;;;;;;;14.73;57.41;100179.58;1797944;79;21228;-76
2021/10/23 10:33:42;;;;;;;14.80;8.03;;;;;;;14.74;56.66;100171.63;1777203;80;21637;-77
2021/10/23 10:36:41;;;;;;;18.17;8.08;;;;;;;14.76;54.92;100176.39;1779328;79;21358;-76
2021/10/23 10:40:03;;;;;;;16.02;7.53;;;;;;;14.79;54.58;100177.37;1786774;79;21810;-76
2021/10/23 10:43:18;;;;;;;11.05;6.97;;;;;;;14.83;54.39;100185.54;1781306;79;21779;-77
2021/10/23 10:46:23;;;;;;;14.55;6.95;;;;;;;14.85;53.80;100177.91;1809738;79;21287;-77
2021/10/23 10:49:56;;;;;;;11.73;6.25;;;;;;;14.86;52.48;100185.11;1808996;79;21311;-77
2021/10/23 10:53:01;;;;;;;17.10;6.22;;;;;;;14.86;52.03;100193.36;1802559;79;21862;-77
2021/10/23 10:56:13;;;;;;;17.12;6.47;;;;;;;14.85;51.81;100191.67;1790827;79;21156;-77
2021/10/23 10:59:21;;;;;;;13.65;6.20;;;;;;;14.86;51.62;100201.62;1808276;79;21343;-76
2021/10/23 11:02:39;;;;;;;13.95;6.15;;;;;;;14.86;51.08;100195.27;1810685;79;21899;-76
2021/10/23 11:05:45;;;;;;;16.15;7.33;;;;;;;14.86;50.64;100188.39;1809817;79;21227;-76
2021/10/23 11:08:51;;;;;;;18.50;7.50;;;;;;;14.86;50.58;100193.89;1810273;79;21298;-76
2021/10/23 11:12:07;;;;;;;12.53;7.35;;;;;;;14.88;50.86;100191.27;1805515;79;21318;-76
2021/10/23 11:15:13;;;;;;;15.45;7.17;;;;;;;14.89;51.46;100192.96;1780817;79;21822;-77
2021/10/23 11:18:20;;;;;;;19.35;8.13;;;;;;;14.92;52.59;100201.35;1777162;80;21414;-77
2021/10/23 11:21:25;;;;;;;14.98;7.67;;;;;;;14.88;53.48;100194.03;1756514;80;21369;-76
2021/10/23 11:24:46;;;;;;;20.00;7.97;;;;;;;14.85;53.79;100196.34;1777219;80;21184;-76
2021/10/23 11:27:54;;;;;;;27.58;9.90;;;;;;;14.78;55.03;100199.92;1777304;80;21252;-76
2021/10/23 11:30:59;;;;;;;29.80;12.60;;;;;;;14.70;55.77;100191.84;1779602;80;21211;-76
2021/10/23 11:34:05;;;;;;;22.75;12.13;;;;;;;14.61;57.17;100193.60;1778980;80;21906;-76
2021/10/23 11:37:16;;;;;;;24.60;13.72;;;;;;;14.55;58.18;100196.13;1777514;80;21371;-76
2021/10/23 11:40:21;;;;;;;33.45;15.40;;;;;;;14.46;59.18;100197.84;1779703;80;21772;-76
2021/10/23 11:43:28;;;;;;;34.98;18.90;;;;;;;14.41;60.93;100197.09;1777833;80;21306;-76
2021/10/23 11:46:34;;;;;;;32.48;16.23;;;;;;;14.33;63.00;100209.63;1779488;80;21818;-76
2021/10/23 11:49:40;;;;;;;32.35;15.70;;;;;;;14.24;65.19;100213.59;1778562;80;21307;-76
2021/10/23 11:52:47;;;;;;;35.75;15.98;;;;;;;14.10;65.55;100220.06;1777939;80;21172;-76
2021/10/23 11:56:13;;;;;;;32.65;15.18;;;;;;;13.97;65.87;100217.56;1779472;80;21304;-76
2021/10/23 11:59:23;;;;;;;27.42;14.00;;;;;;;13.89;66.01;100220.98;1778789;80;21283;-76
2021/10/23 12:02:25;;;;;;;37.15;18.12;;;;;;;13.83;66.35;100221.77;1779927;80;21934;-76
2021/10/23 12:05:48;;;;;;;36.68;18.00;;;;;;;13.80;67.75;100210.66;1756127;80;21834;-76
2021/10/23 12:08:55;;;;;;;40.38;18.10;;;;;;;13.78;68.74;100214.11;1779255;80;21188;-76
2021/10/23 12:12:13;;;;;;;26.02;14.75;;;;;;;13.76;68.90;100210.20;1779200;80;21295;-76
2021/10/23 12:15:31;;;;;;;32.78;14.70;;;;;;;13.76;68.48;100204.70;1776779;80;21237;-76
2021/10/23 12:18:41;;;;;;;31.55;14.83;;;;;;;13.76;68.04;100218.45;1685648;84;21964;-76
2021/10/23 12:21:58;;;;;;;37.20;16.48;;;;;;;13.75;67.77;100212.63;1723429;83;21320;-76
2021/10/23 12:25:04;;;;;;;36.42;16.67;;;;;;;13.74;67.24;100225.21;1710450;84;21831;-76
2021/10/23 12:28:11;;;;;;;34.33;17.25;;;;;;;13.71;66.98;100222.32;1724086;83;21890;-76
2021/10/23 12:31:17;;;;;;;44.85;17.82;;;;;;;13.70;67.21;100228.03;1724035;83;21367;-76
2021/10/23 12:34:23;;;;;;;36.60;17.57;;;;;;;13.71;67.46;100229.72;1724212;83;21216;-76
2021/10/23 12:37:40;;;;;;;38.17;19.27;;;;;;;13.71;67.46;100224.22;1723118;83;21949;-76
2021/10/23 12:40:47;;;;;;;40.55;19.05;;;;;;;13.73;67.31;100237.23;1723137;83;21275;-77
2021/10/23 12:43:53;;;;;;;41.65;19.80;;;;;;;13.70;67.21;100230.25;1725517;83;21367;-76
2021/10/23 12:47:01;;;;;;;48.55;24.20;;;;;;;13.71;67.07;100233.84;1723261;83;21330;-77
2021/10/23 12:50:07;;;;;;;63.92;30.92;;;;;;;13.68;67.07;100236.45;1723845;83;21362;-77
2021/10/23 12:53:13;;;;;;;55.95;24.98;;;;;;;13.65;66.88;100235.49;1723325;82;21180;-78
2021/10/23 12:56:19;;;;;;;42.85;19.37;;;;;;;13.63;66.96;100230.70;1724232;83;21212;-76
2021/10/23 12:59:27;;;;;;;41.40;17.70;;;;;;;13.62;66.86;100229.53;1724105;83;21352;-76
2021/10/23 13:02:34;;;;;;;39.53;16.77;;;;;;;13.59;66.92;100228.55;1722858;83;21307;-77
2021/10/23 13:05:44;;;;;;;40.67;20.65;;;;;;;13.59;66.90;100233.52;1724661;82;21184;-76
2021/10/23 13:08:49;;;;;;;90.30;39.60;;;;;;;13.58;66.97;100236.47;1740543;82;21827;-76
2021/10/23 13:11:57;;;;;;;97.20;43.80;;;;;;;13.54;66.88;100220.37;1723690;83;21740;-76
2021/10/23 13:15:04;;;;;;;56.23;28.17;;;;;;;13.51;66.83;100227.66;1724278;83;21275;-76
2021/10/23 13:18:09;;;;;;;55.63;26.17;;;;;;;13.48;66.88;100234.91;1724211;83;21183;-76
2021/10/23 13:21:16;;;;;;;70.30;32.95;;;;;;;13.45;66.96;100239.41;1723199;83;21353;-76
2021/10/23 13:24:22;;;;;;;75.72;33.90;;;;;;;13.42;67.03;100243.95;1717727;83;21258;-76
2021/10/23 13:27:28;;;;;;;74.70;33.28;;;;;;;13.38;67.06;100237.66;1704634;84;21269;-76
2021/10/23 13:30:35;;;;;;;54.58;28.98;;;;;;;13.34;67.14;100234.45;1704680;84;21202;-76
2021/10/23 13:33:41;;;;;;;55.43;24.40;;;;;;;13.32;67.05;100244.80;1706062;84;21311;-76
2021/10/23 13:36:47;;;;;;;44.53;20.65;;;;;;;13.29;66.99;100240.53;1706097;84;21209;-76
2021/10/23 13:39:54;;;;;;;35.48;17.55;;;;;;;13.27;67.02;100248.13;1705964;84;21308;-76
2021/10/23 13:43:00;;;;;;;37.15;18.12;;;;;;;13.25;66.95;100242.48;1705557;84;21934;-76
2021/10/23 13:46:06;;;;;;;48.70;19.27;;;;;;;13.21;66.96;100249.38;1706196;84;21371;-76
2021/10/23 13:49:10;;;;;;;57.30;22.93;;;;;;;13.16;67.17;100249.12;1706081;84;21867;-76
2021/10/23 13:52:16;;;;;;;59.55;27.82;;;;;;;13.12;67.29;100240.94;1706075;84;21312;-76
2021/10/23 13:55:23;;;;;;;67.10;27.27;;;;;;;13.07;67.56;100242.89;1706167;84;21320;-77
2021/10/23 13:58:28;;;;;;;62.15;26.05;;;;;;;13.03;67.79;100245.70;1706152;84;21831;-76
2021/10/23 14:01:35;;;;;;;44.18;21.02;;;;;;;12.98;68.07;100249.02;1704825;84;21887;-76
2021/10/23 14:04:40;;;;;;;56.08;25.02;;;;;;;12.95;68.35;100256.81;1696815;82;21335;-76
2021/10/23 14:07:48;;;;;;;64.65;29.20;;;;;;;12.89;68.72;100257.07;1706214;84;21791;-76
2021/10/23 14:10:55;;;;;;;57.08;27.05;;;;;;;12.83;69.25;100272.06;1718526;82;21173;-76
2021/10/23 14:14:02;;;;;;;60.30;29.40;;;;;;;12.76;69.90;100270.10;1734143;82;21244;-76